Time;durP1;ratioP1;P1;durP2;ratioP2;P2;SDS_P1;SDS_P2;PMS_P1;PMS_P2;Temp;Humidity;BMP_temperature;BMP_pressure;BME280_temperature;BME280_humidity;BME280_pressure;Samples;Min_cycle;Max_cycle;Signal;HPM_P1;HPM_P2
2021/12/08 00:02:15;;;;;;;12.67;7.00;;;7.30;99.90;;;;;;4962199;28;39313;-77
2021/12/08 00:04:42;;;;;;;8.27;6.30;;;7.30;99.90;;;;;;4966786;28;37755;-77
2021/12/08 00:07:09;;;;;;;6.07;5.43;;;7.30;99.90;;;;;;4971039;28;38058;-78
2021/12/08 00:14:55;;;;;;;9.03;5.30;;;7.30;99.90;;;;;;4956548;28;37586;-78
2021/12/08 00:17:21;;;;;;;9.50;5.63;;;7.30;99.90;;;;;;4955907;28;38087;-78
2021/12/08 00:19:47;;;;;;;10.67;5.47;;;7.40;99.90;;;;;;4964051;28;37968;-79
2021/12/08 00:22:13;;;;;;;12.13;4.40;;;7.40;99.90;;;;;;4955642;28;39501;-80
2021/12/08 00:24:39;;;;;;;10.20;4.57;;;7.40;99.90;;;;;;4966081;28;39145;-78
2021/12/08 00:27:06;;;;;;;10.27;4.63;;;7.40;99.90;;;;;;4953241;28;38885;-79
2021/12/08 00:29:34;;;;;;;12.53;4.97;;;7.40;99.90;;;;;;4954080;28;36391;-79
2021/12/08 00:32:00;;;;;;;10.30;4.47;;;7.40;99.90;;;;;;4946869;28;37258;-79
2021/12/08 00:34:26;;;;;;;11.40;4.20;;;7.40;99.90;;;;;;4949451;28;39148;-79
2021/12/08 00:36:57;;;;;;;15.63;5.80;;;7.40;99.90;;;;;;4963687;28;38956;-79
2021/12/08 00:39:23;;;;;;;9.07;4.20;;;7.40;99.90;;;;;;4958107;28;37266;-79
2021/12/08 00:41:49;;;;;;;7.70;4.27;;;7.40;99.90;;;;;;4944654;28;37771;-79
2021/12/08 00:44:15;;;;;;;10.57;5.40;;;7.50;99.90;;;;;;4964911;28;38336;-78
2021/12/08 00:46:42;;;;;;;14.10;5.03;;;7.50;99.90;;;;;;4964629;28;38157;-78
2021/12/08 00:49:11;;;;;;;12.40;4.33;;;7.40;99.90;;;;;;4966275;28;36124;-79
2021/12/08 00:51:37;;;;;;;10.20;4.63;;;7.40;99.90;;;;;;4965828;28;38556;-79
2021/12/08 00:54:04;;;;;;;10.97;5.00;;;7.40;99.90;;;;;;4964668;28;39439;-79
2021/12/08 00:56:31;;;;;;;13.20;5.13;;;7.40;99.90;;;;;;4952145;28;38181;-78
2021/12/08 00:58:57;;;;;;;11.83;5.10;;;7.40;99.90;;;;;;4947953;28;36394;-78
2021/12/08 01:01:24;;;;;;;12.33;5.03;;;7.40;99.90;;;;;;4963972;28;39975;-78
2021/12/08 01:03:51;;;;;;;15.23;6.07;;;7.40;99.90;;;;;;4965825;28;38254;-77
2021/12/08 01:06:18;;;;;;;14.50;5.50;;;7.40;99.90;;;;;;4965196;28;38541;-78
2021/12/08 01:08:44;;;;;;;13.10;5.97;;;7.40;99.90;;;;;;4963539;28;37349;-78
2021/12/08 01:11:14;;;;;;;17.33;6.47;;;7.30;99.90;;;;;;4956887;28;38774;-78
2021/12/08 01:13:41;;;;;;;14.97;6.50;;;7.30;99.90;;;;;;4955728;28;39170;-78
2021/12/08 01:16:08;;;;;;;16.27;6.90;;;7.30;99.90;;;;;;4961920;28;38944;-78
2021/12/08 01:18:34;;;;;;;16.13;6.90;;;7.30;99.90;;;;;;4962550;28;35921;-78
2021/12/08 01:21:03;;;;;;;17.07;7.23;;;7.30;99.90;;;;;;4966025;28;38382;-78
2021/12/08 01:23:29;;;;;;;21.27;8.60;;;7.30;99.90;;;;;;4949080;28;47430;-78
2021/12/08 01:25:56;;;;;;;13.53;7.17;;;7.30;99.90;;;;;;4960504;28;38289;-78
2021/12/08 01:28:23;;;;;;;15.43;6.53;;;7.30;99.90;;;;;;4950322;28;36132;-77
2021/12/08 01:30:52;;;;;;;18.17;7.23;;;7.20;99.90;;;;;;4951364;28;37954;-78
2021/12/08 01:33:19;;;;;;;15.80;6.93;;;7.30;99.90;;;;;;4963058;28;37495;-78
2021/12/08 01:35:46;;;;;;;22.17;6.53;;;7.30;99.90;;;;;;4955811;28;38407;-78
2021/12/08 01:38:12;;;;;;;16.47;6.37;;;7.30;99.90;;;;;;4949564;28;38113;-78
2021/12/08 01:40:39;;;;;;;24.27;7.67;;;7.30;99.90;;;;;;4960631;28;38889;-76
2021/12/08 01:43:12;;;;;;;17.17;6.90;;;7.30;99.90;;;;;;4940653;28;38603;-77
2021/12/08 01:45:57;;;;;;;19.03;6.80;;;7.30;99.90;;;;;;4951697;28;38441;-78
2021/12/08 01:48:24;;;;;;;21.80;7.73;;;7.30;99.90;;;;;;4950654;28;37957;-77
2021/12/08 01:50:55;;;;;;;22.40;7.43;;;7.30;99.90;;;;;;4949482;28;39831;-78
2021/12/08 01:53:22;;;;;;;17.00;7.07;;;7.30;99.90;;;;;;4963698;28;37541;-78
2021/12/08 01:55:48;;;;;;;22.23;6.80;;;7.40;99.90;;;;;;4973297;28;37962;-79
2021/12/08 01:58:15;;;;;;;25.17;7.30;;;7.40;99.90;;;;;;4967931;28;37345;-79
2021/12/08 02:00:46;;;;;;;21.07;6.60;;;7.40;99.90;;;;;;4974196;28;39846;-79
2021/12/08 02:03:14;;;;;;;26.13;7.77;;;7.40;99.90;;;;;;4968093;28;38125;-79
2021/12/08 02:05:41;;;;;;;23.60;7.50;;;7.40;99.90;;;;;;4951154;28;36825;-79
2021/12/08 02:08:07;;;;;;;26.03;7.57;;;7.40;99.90;;;;;;4951606;28;38944;-78
2021/12/08 02:10:34;;;;;;;19.17;6.37;;;7.40;99.90;;;;;;4949834;28;40009;-77
2021/12/08 02:13:00;;;;;;;21.43;7.10;;;7.40;99.90;;;;;;4948980;28;39998;-77
2021/12/08 02:15:26;;;;;;;25.50;6.53;;;7.40;99.90;;;;;;4956449;28;46837;-76
2021/12/08 02:17:55;;;;;;;20.07;6.90;;;7.40;99.90;;;;;;4955682;28;37194;-77
2021/12/08 02:20:24;;;;;;;23.17;6.00;;;7.40;99.90;;;;;;4955697;28;38446;-76
2021/12/08 02:22:50;;;;;;;26.10;6.30;;;7.50;99.90;;;;;;4963378;28;38143;-77
2021/12/08 02:25:19;;;;;;;18.40;5.00;;;7.50;99.90;;;;;;4945305;28;39149;-77
2021/12/08 02:27:46;;;;;;;15.13;4.40;;;7.50;99.90;;;;;;4946838;28;38049;-77
2021/12/08 02:30:22;;;;;;;18.30;3.70;;;7.50;99.90;;;;;;4946485;28;39421;-77
2021/12/08 02:49:07;;;;;;;4.23;1.33;;;7.40;99.90;;;;;;4965513;28;37599;-78
2021/12/08 02:51:36;;;;;;;6.30;1.77;;;7.40;99.90;;;;;;4938855;28;39683;-79
2021/12/08 02:54:03;;;;;;;6.83;1.33;;;7.30;99.90;;;;;;4941206;28;39069;-78
2021/12/08 02:56:30;;;;;;;8.47;1.77;;;7.30;99.90;;;;;;4960983;28;38072;-78
2021/12/08 02:58:58;;;;;;;7.73;1.30;;;7.30;99.90;;;;;;4963966;28;37113;-78
2021/12/08 03:01:25;;;;;;;10.23;2.30;;;7.30;99.90;;;;;;4938679;28;39648;-78
2021/12/08 03:03:51;;;;;;;6.87;1.67;;;7.30;99.90;;;;;;4965610;28;39303;-78
2021/12/08 03:06:18;;;;;;;8.00;2.17;;;7.10;99.90;;;;;;4952638;28;37965;-79
2021/12/08 03:08:44;;;;;;;10.70;2.00;;;7.10;99.90;;;;;;4965053;28;36842;-79
2021/12/08 03:11:10;;;;;;;7.23;2.33;;;7.10;99.90;;;;;;4963407;28;38523;-78
2021/12/08 03:13:42;;;;;;;9.90;2.57;;;7.00;99.90;;;;;;4943818;28;39037;-78
2021/12/08 03:16:13;;;;;;;11.50;2.70;;;7.00;99.90;;;;;;4957513;28;37807;-77
2021/12/08 03:18:41;;;;;;;9.20;2.80;;;6.90;99.90;;;;;;4947475;28;37868;-77
2021/12/08 03:21:09;;;;;;;8.33;2.93;;;6.90;99.90;;;;;;4939329;28;40711;-78
2021/12/08 03:26:32;;;;;;;13.20;3.13;;;6.90;99.90;;;;;;4941855;28;49299;-78
2021/12/08 03:29:04;;;;;;;9.80;2.63;;;6.80;99.90;;;;;;4946730;28;38003;-78
2021/12/08 03:31:38;;;;;;;15.57;3.17;;;6.80;99.90;;;;;;4944537;28;47128;-77
2021/12/08 03:34:04;;;;;;;15.00;3.07;;;6.70;99.90;;;;;;4960004;28;39150;-78
2021/12/08 03:36:30;;;;;;;18.67;3.03;;;6.70;99.90;;;;;;4936275;28;40347;-78
2021/12/08 03:38:56;;;;;;;14.07;3.30;;;6.70;99.90;;;;;;4959812;28;37809;-78
2021/12/08 03:41:23;;;;;;;13.43;3.20;;;6.70;99.90;;;;;;4943117;28;40130;-78
2021/12/08 03:43:50;;;;;;;7.87;2.80;;;6.70;99.90;;;;;;4961849;28;39356;-78
2021/12/08 03:46:17;;;;;;;12.50;2.37;;;6.60;99.90;;;;;;4946194;28;38546;-78
2021/12/08 03:48:49;;;;;;;11.90;2.73;;;6.60;99.90;;;;;;4943686;28;38025;-79
2021/12/08 03:51:16;;;;;;;13.50;3.10;;;6.60;99.90;;;;;;4944662;28;39673;-78
2021/12/08 03:53:43;;;;;;;15.63;2.77;;;6.70;99.90;;;;;;4948879;28;39248;-78
2021/12/08 03:56:09;;;;;;;13.03;2.87;;;6.60;99.90;;;;;;4947684;28;38942;-79
2021/12/08 03:58:35;;;;;;;17.83;3.10;;;6.60;99.90;;;;;;4963286;28;37720;-79
2021/12/08 04:01:05;;;;;;;13.20;3.20;;;6.60;99.90;;;;;;4967511;28;39549;-79
2021/12/08 04:03:33;;;;;;;20.03;4.23;;;6.60;99.90;;;;;;4944893;28;38689;-79
2021/12/08 04:06:06;;;;;;;22.57;4.30;;;6.70;99.90;;;;;;4963329;28;37044;-78
2021/12/08 04:08:52;;;;;;;25.48;5.30;;;6.70;99.90;;;;;;4950559;28;47380;-78
2021/12/08 04:11:18;;;;;;;20.57;5.40;;;6.60;99.90;;;;;;4969135;28;38296;-78
2021/12/08 04:13:49;;;;;;;25.13;6.30;;;6.60;99.90;;;;;;4949517;28;38720;-78
2021/12/08 04:16:18;;;;;;;21.33;4.17;;;6.60;99.90;;;;;;4965899;28;37861;-78
2021/12/08 04:18:44;;;;;;;16.70;3.83;;;6.60;99.90;;;;;;4959154;28;38735;-78
2021/12/08 04:21:12;;;;;;;16.93;4.63;;;6.60;99.90;;;;;;4937193;28;39982;-78
2021/12/08 04:23:40;;;;;;;15.93;3.47;;;6.60;99.90;;;;;;4960332;28;39857;-78
2021/12/08 04:26:11;;;;;;;14.47;3.00;;;6.50;99.90;;;;;;4946253;28;38768;-78
2021/12/08 04:28:38;;;;;;;20.93;3.27;;;6.50;99.90;;;;;;4950757;28;38072;-78
2021/12/08 04:31:07;;;;;;;13.00;2.80;;;6.50;99.90;;;;;;4954919;28;39922;-79
2021/12/08 04:33:35;;;;;;;10.83;2.67;;;6.60;99.90;;;;;;4964309;28;38274;-77
2021/12/08 04:36:05;;;;;;;16.77;2.77;;;6.60;99.90;;;;;;4945847;28;37209;-78
2021/12/08 04:38:38;;;;;;;13.27;2.83;;;6.60;99.90;;;;;;4959467;28;38260;-78
2021/12/08 04:41:09;;;;;;;15.05;2.42;;;6.60;99.90;;;;;;4962053;28;39100;-77
2021/12/08 04:43:57;;;;;;;12.03;2.63;;;6.60;99.90;;;;;;4956324;28;39338;-78
2021/12/08 05:00:30;;;;;;;9.30;2.10;;;6.50;99.90;;;;;;4960299;28;38611;-78
2021/12/08 05:08:42;;;;;;;12.53;2.90;;;6.40;99.90;;;;;;4959016;28;49087;-78
2021/12/08 05:11:16;;;;;;;15.93;2.83;;;6.40;99.90;;;;;;4957432;28;37395;-77
2021/12/08 05:13:46;;;;;;;9.87;2.77;;;6.40;99.90;;;;;;4957489;28;38571;-78
2021/12/08 05:16:14;;;;;;;9.30;2.00;;;6.40;99.90;;;;;;4956517;28;38378;-78
2021/12/08 05:18:44;;;;;;;12.07;2.73;;;6.40;99.90;;;;;;4943687;28;37125;-78
2021/12/08 05:21:21;;;;;;;10.43;1.97;;;6.40;99.90;;;;;;4957865;28;36770;-79
2021/12/08 05:23:53;;;;;;;10.57;2.27;;;6.30;99.90;;;;;;4958012;28;38787;-78
2021/12/08 05:26:28;;;;;;;10.87;1.83;;;6.30;99.90;;;;;;4964986;28;38573;-78
2021/12/08 05:28:59;;;;;;;10.97;2.00;;;6.30;99.90;;;;;;4958441;28;38329;-78
2021/12/08 05:31:29;;;;;;;14.13;1.77;;;6.30;99.90;;;;;;4943217;28;36290;-78
2021/12/08 05:33:55;;;;;;;11.80;2.30;;;6.30;99.90;;;;;;4943100;28;37551;-77
2021/12/08 05:36:23;;;;;;;9.97;1.60;;;6.30;99.90;;;;;;4962672;28;38436;-76
2021/12/08 05:38:50;;;;;;;13.27;1.97;;;6.30;99.90;;;;;;4946717;28;38518;-77
2021/12/08 05:41:24;;;;;;;12.17;2.83;;;6.20;99.90;;;;;;4940460;28;37555;-76
2021/12/08 05:43:50;;;;;;;10.93;2.57;;;6.20;99.90;;;;;;4947555;28;38609;-77
2021/12/08 05:46:18;;;;;;;14.23;2.33;;;6.20;99.90;;;;;;4943423;28;37393;-76
2021/12/08 05:48:49;;;;;;;11.30;2.30;;;6.10;99.90;;;;;;4944859;28;37344;-77
2021/12/08 05:51:23;;;;;;;10.77;2.00;;;6.10;99.90;;;;;;4947208;28;37232;-78
2021/12/08 05:53:54;;;;;;;13.00;2.33;;;6.10;99.90;;;;;;4945159;28;38458;-79
2021/12/08 05:56:21;;;;;;;10.00;1.90;;;6.10;99.90;;;;;;4937020;28;39838;-77
2021/12/08 05:58:49;;;;;;;13.83;2.17;;;6.10;99.90;;;;;;4940921;28;37645;-77
2021/12/08 06:01:26;;;;;;;12.77;2.00;;;6.20;99.90;;;;;;4943891;28;36632;-77
2021/12/08 06:03:53;;;;;;;15.83;2.83;;;6.10;99.90;;;;;;4946040;28;39318;-78
2021/12/08 06:06:22;;;;;;;11.67;1.90;;;6.10;99.90;;;;;;4943394;28;38849;-77
2021/12/08 06:08:51;;;;;;;13.57;2.43;;;6.10;99.90;;;;;;4939184;28;38371;-77
2021/12/08 06:11:17;;;;;;;13.83;2.20;;;6.10;99.90;;;;;;4943141;28;36107;-79
2021/12/08 06:13:46;;;;;;;13.57;3.80;;;6.10;99.90;;;;;;4943395;28;39666;-78
2021/12/08 06:16:14;;;;;;;11.63;2.40;;;6.00;99.90;;;;;;4947789;28;38548;-79
2021/12/08 06:18:42;;;;;;;12.97;2.90;;;6.00;99.90;;;;;;4945060;28;40205;-77
2021/12/08 06:21:15;;;;;;;11.63;2.33;;;6.10;99.90;;;;;;4943949;28;35869;-77
2021/12/08 06:23:42;;;;;;;17.50;2.93;;;6.10;99.90;;;;;;4942535;28;38850;-77
2021/12/08 06:26:10;;;;;;;10.40;1.70;;;6.20;99.90;;;;;;4942357;28;39829;-78
2021/12/08 06:28:37;;;;;;;13.00;2.90;;;6.20;99.90;;;;;;4944741;28;37072;-77
2021/12/08 06:31:05;;;;;;;11.23;2.40;;;6.20;99.90;;;;;;4943862;28;36011;-78
2021/12/08 06:33:31;;;;;;;12.07;2.40;;;6.20;99.90;;;;;;4946320;28;42289;-77
2021/12/08 06:36:09;;;;;;;12.47;2.20;;;6.10;99.90;;;;;;4945410;28;38612;-77
2021/12/08 06:38:35;;;;;;;11.60;2.17;;;6.10;99.90;;;;;;4939146;28;48245;-78
2021/12/08 06:41:30;;;;;;;12.50;2.10;;;6.20;99.90;;;;;;4943621;28;36143;-77
2021/12/08 06:44:04;;;;;;;14.13;2.10;;;6.10;99.90;;;;;;4921490;28;39834;-77
2021/12/08 06:46:31;;;;;;;10.70;2.20;;;6.10;99.90;;;;;;4930418;28;47380;-77
2021/12/08 06:49:02;;;;;;;11.47;2.20;;;6.00;99.90;;;;;;4921332;28;35844;-76
2021/12/08 06:51:32;;;;;;;14.20;2.47;;;6.00;99.90;;;;;;4925561;28;48599;-77
2021/12/08 06:54:10;;;;;;;10.23;1.87;;;6.00;99.90;;;;;;4937055;28;40779;-77
2021/12/08 06:56:46;;;;;;;14.13;2.50;;;5.90;99.90;;;;;;4924492;28;47112;-77
2021/12/08 06:59:17;;;;;;;18.03;3.13;;;5.90;99.90;;;;;;4934541;28;37201;-78
2021/12/08 07:02:04;;;;;;;11.77;2.13;;;5.90;99.90;;;;;;4931093;28;37407;-77
2021/12/08 07:04:55;;;;;;;17.20;3.03;;;5.90;99.90;;;;;;4930044;28;48969;-77
2021/12/08 07:07:25;;;;;;;17.67;3.00;;;5.80;99.90;;;;;;4932721;28;38714;-78
2021/12/08 07:10:05;;;;;;;11.10;2.90;;;5.90;99.90;;;;;;4932678;28;35775;-77
2021/12/08 07:12:38;;;;;;;10.30;2.30;;;5.90;99.90;;;;;;4936146;28;47012;-78
2021/12/08 07:15:16;;;;;;;14.45;2.33;;;5.90;99.90;;;;;;4919771;28;38525;-78
2021/12/08 07:17:45;;;;;;;13.13;2.90;;;5.90;99.90;;;;;;4910827;29;39594;-78
2021/12/08 07:20:34;;;;;;;14.03;2.43;;;5.90;99.90;;;;;;4925502;28;37761;-78
2021/12/08 07:23:01;;;;;;;12.07;2.47;;;5.80;99.90;;;;;;4928492;28;38035;-77
2021/12/08 07:25:29;;;;;;;11.23;2.80;;;5.80;99.90;;;;;;4918378;28;38149;-77
2021/12/08 07:27:56;;;;;;;12.90;3.23;;;5.80;99.90;;;;;;4931767;28;37204;-77
2021/12/08 07:30:28;;;;;;;10.47;2.73;;;5.80;99.90;;;;;;4927280;28;37390;-78
2021/12/08 07:32:54;;;;;;;11.70;2.80;;;5.90;99.90;;;;;;4931272;28;37769;-78
2021/12/08 07:35:27;;;;;;;10.03;2.93;;;5.80;99.90;;;;;;4922965;28;37834;-76
2021/12/08 07:37:53;;;;;;;13.82;2.97;;;5.80;99.90;;;;;;4921779;28;37558;-77
2021/12/08 07:40:36;;;;;;;11.07;2.63;;;5.80;99.90;;;;;;4928803;28;37541;-77
2021/12/08 07:43:09;;;;;;;15.25;2.60;;;5.80;99.90;;;;;;4943286;28;36426;-77
2021/12/08 07:45:38;;;;;;;21.03;2.83;;;5.80;99.90;;;;;;4950148;28;39599;-77
2021/12/08 07:48:07;;;;;;;14.77;2.90;;;5.80;99.90;;;;;;4945796;28;37024;-78
2021/12/08 07:50:39;;;;;;;16.30;3.07;;;5.90;99.90;;;;;;4943264;28;37812;-77
2021/12/08 07:53:08;;;;;;;12.30;3.05;;;5.90;99.90;;;;;;4945047;28;37764;-77
2021/12/08 07:55:40;;;;;;;12.83;3.20;;;5.90;99.90;;;;;;4948836;28;37544;-77
2021/12/08 07:58:09;;;;;;;11.07;2.33;;;5.90;99.90;;;;;;4954813;28;38274;-78
2021/12/08 08:00:46;;;;;;;16.73;3.23;;;5.90;99.90;;;;;;4947430;28;37000;-78
2021/12/08 08:03:14;;;;;;;9.33;2.30;;;5.90;99.90;;;;;;4935985;28;36671;-77
2021/12/08 08:05:42;;;;;;;19.27;3.33;;;6.00;99.90;;;;;;4945723;28;38665;-77
2021/12/08 08:08:14;;;;;;;13.73;2.80;;;6.10;99.90;;;;;;4965964;28;38501;-77
2021/12/08 08:10:49;;;;;;;10.77;2.10;;;6.20;99.90;;;;;;4945545;28;38094;-77
2021/12/08 08:13:19;;;;;;;11.57;2.17;;;6.30;99.90;;;;;;4962166;28;37222;-76
2021/12/08 08:15:48;;;;;;;10.20;2.17;;;6.30;99.90;;;;;;4954651;28;38924;-77
2021/12/08 08:18:19;;;;;;;13.57;2.80;;;6.40;99.90;;;;;;4958567;28;37253;-77
2021/12/08 08:20:50;;;;;;;14.60;2.40;;;6.40;99.90;;;;;;4931842;28;38760;-77
2021/12/08 08:23:21;;;;;;;8.03;2.17;;;6.30;99.90;;;;;;4940020;28;37029;-77
2021/12/08 08:25:49;;;;;;;13.07;2.33;;;6.30;99.90;;;;;;4948003;28;37649;-77
2021/12/08 08:28:16;;;;;;;18.27;3.07;;;6.30;99.90;;;;;;4942389;28;39101;-76
2021/12/08 08:30:47;;;;;;;15.87;3.50;;;6.20;99.90;;;;;;4944204;28;37701;-77
2021/12/08 08:33:14;;;;;;;16.50;2.87;;;6.30;99.90;;;;;;4939245;28;35934;-76
2021/12/08 08:35:50;;;;;;;10.30;3.07;;;6.20;99.90;;;;;;4937586;28;40611;-77
2021/12/08 08:38:31;;;;;;;12.57;2.50;;;6.30;99.90;;;;;;4947318;28;37198;-76
2021/12/08 08:41:03;;;;;;;12.20;2.57;;;6.30;99.90;;;;;;4958814;28;38885;-78
2021/12/08 08:43:30;;;;;;;9.18;1.98;;;6.30;99.90;;;;;;4950176;28;46108;-75
2021/12/08 08:46:08;;;;;;;8.73;2.30;;;6.40;99.90;;;;;;4957082;28;38789;-77
2021/12/08 08:48:55;;;;;;;7.43;1.87;;;6.40;99.90;;;;;;4959293;28;49970;-77
2021/12/08 08:51:30;;;;;;;12.23;2.27;;;6.40;99.90;;;;;;4938645;28;37386;-78
2021/12/08 08:54:01;;;;;;;11.13;2.27;;;6.40;99.90;;;;;;4963156;28;36778;-75
2021/12/08 08:56:35;;;;;;;12.57;2.53;;;6.50;99.90;;;;;;4949827;28;47073;-77
2021/12/08 08:59:12;;;;;;;14.47;2.83;;;6.50;99.90;;;;;;4969163;28;37219;-75
2021/12/08 09:01:44;;;;;;;10.97;1.73;;;6.60;99.90;;;;;;4964305;28;48614;-76
2021/12/08 09:04:16;;;;;;;7.73;2.00;;;6.60;99.90;;;;;;4959218;28;35842;-76
2021/12/08 09:06:47;;;;;;;10.00;1.70;;;6.60;99.90;;;;;;4953572;28;38008;-77
2021/12/08 09:09:25;;;;;;;10.03;2.07;;;6.70;99.90;;;;;;4943283;28;40130;-76
2021/12/08 09:11:59;;;;;;;8.77;2.30;;;6.80;99.90;;;;;;4942714;28;39105;-77
2021/12/08 09:14:39;;;;;;;8.63;2.40;;;6.90;99.90;;;;;;4947727;28;38116;-77
2021/12/08 09:17:26;;;;;;;8.13;2.50;;;6.90;99.90;;;;;;4973110;28;38722;-77
2021/12/08 09:20:10;;;;;;;9.93;2.03;;;6.90;99.90;;;;;;4935840;28;38972;-77
2021/12/08 09:22:49;;;;;;;9.67;2.10;;;6.90;99.90;;;;;;4942528;28;48921;-77
2021/12/08 09:25:20;;;;;;;7.97;2.33;;;6.80;99.90;;;;;;4961654;28;37798;-77
2021/12/08 09:27:51;;;;;;;9.67;2.27;;;6.80;99.90;;;;;;4936067;28;38360;-76
2021/12/08 09:30:25;;;;;;;7.67;1.83;;;6.80;99.90;;;;;;4954563;28;37380;-76
2021/12/08 09:33:01;;;;;;;8.90;2.23;;;6.80;99.90;;;;;;4961200;28;38547;-77
2021/12/08 09:35:55;;;;;;;9.47;2.50;;;6.80;99.90;;;;;;4932357;28;49860;-77
2021/12/08 09:38:30;;;;;;;9.70;2.23;;;6.70;99.90;;;;;;4942915;28;40799;-77
2021/12/08 09:41:01;;;;;;;10.03;2.73;;;6.70;99.90;;;;;;4964320;28;38641;-77
2021/12/08 09:43:33;;;;;;;8.40;2.03;;;6.70;99.90;;;;;;4946861;28;46756;-77
2021/12/08 09:46:05;;;;;;;7.65;2.20;;;6.80;99.90;;;;;;4942331;28;38904;-78
2021/12/08 09:48:31;;;;;;;9.70;2.60;;;6.80;99.90;;;;;;4961131;28;48344;-78
2021/12/08 09:50:59;;;;;;;8.43;2.47;;;6.80;99.90;;;;;;4942600;28;40866;-74
2021/12/08 09:53:27;;;;;;;12.07;2.73;;;6.80;99.90;;;;;;4961835;28;39152;-77
2021/12/08 09:55:54;;;;;;;9.13;2.43;;;6.80;99.90;;;;;;4952252;28;37770;-77
2021/12/08 09:58:21;;;;;;;11.17;3.23;;;6.90;99.90;;;;;;4947426;28;40532;-77
2021/12/08 10:00:50;;;;;;;11.60;3.03;;;6.90;99.90;;;;;;4948620;28;38850;-77
2021/12/08 10:03:17;;;;;;;10.83;2.90;;;6.90;99.90;;;;;;4950581;28;38265;-78
2021/12/08 10:05:43;;;;;;;8.77;2.60;;;6.90;99.90;;;;;;4944185;28;38014;-75
2021/12/08 10:08:10;;;;;;;10.00;2.83;;;6.90;99.90;;;;;;4951656;28;39723;-77
2021/12/08 10:10:41;;;;;;;7.47;2.50;;;6.90;99.90;;;;;;4938712;28;39831;-76
2021/12/08 10:13:08;;;;;;;6.97;2.67;;;6.90;99.90;;;;;;4942963;28;39435;-76
2021/12/08 10:15:35;;;;;;;7.63;2.60;;;6.90;99.90;;;;;;4942696;28;37174;-76
2021/12/08 10:18:01;;;;;;;9.10;2.93;;;6.90;99.90;;;;;;4934875;28;40747;-76
2021/12/08 10:20:32;;;;;;;6.00;2.50;;;7.00;99.90;;;;;;4926080;28;47430;-77
2021/12/08 10:23:32;;;;;;;5.83;2.60;;;7.00;99.90;;;;;;4942886;28;38496;-76
2021/12/08 10:25:59;;;;;;;8.53;3.00;;;7.00;99.90;;;;;;4914939;28;47560;-77
2021/12/08 10:28:45;;;;;;;7.17;2.93;;;7.00;99.90;;;;;;4936650;28;39593;-76
2021/12/08 10:31:19;;;;;;;8.63;3.23;;;7.00;99.90;;;;;;4943380;28;38546;-75
2021/12/08 10:34:06;;;;;;;8.23;3.00;;;6.90;99.90;;;;;;4958054;28;38974;-75
2021/12/08 10:36:50;;;;;;;10.00;3.57;;;6.90;99.90;;;;;;4935048;28;49245;-76
2021/12/08 10:39:20;;;;;;;14.00;3.50;;;7.00;99.90;;;;;;4943327;28;37618;-76
2021/12/08 10:42:01;;;;;;;9.37;4.20;;;7.00;99.90;;;;;;4953265;28;39417;-76
2021/12/08 10:44:36;;;;;;;8.47;2.80;;;7.00;99.90;;;;;;4942893;28;47473;-76
2021/12/08 10:47:03;;;;;;;6.77;3.13;;;7.00;99.90;;;;;;4945997;28;37498;-77
2021/12/08 10:54:45;;;;;;;9.83;3.17;;;7.20;99.90;;;;;;4961510;28;49492;-75
2021/12/08 10:57:29;;;;;;;8.20;2.80;;;7.20;99.90;;;;;;4944702;28;36058;-77
2021/12/08 11:00:09;;;;;;;7.80;2.50;;;7.20;99.90;;;;;;4948599;28;40268;-75
2021/12/08 11:02:40;;;;;;;7.20;2.33;;;7.20;99.90;;;;;;4950480;28;46979;-76
2021/12/08 11:05:28;;;;;;;9.47;2.63;;;7.20;99.90;;;;;;4949262;28;38163;-75
2021/12/08 11:08:19;;;;;;;6.67;2.97;;;7.20;99.90;;;;;;4945247;28;40614;-74
2021/12/08 11:10:53;;;;;;;11.13;3.47;;;7.20;99.90;;;;;;4947647;28;48702;-77
2021/12/08 11:13:23;;;;;;;9.83;4.00;;;7.20;99.90;;;;;;4949857;28;37423;-76
2021/12/08 11:16:03;;;;;;;10.23;3.60;;;7.20;99.90;;;;;;4945776;28;39628;-75
2021/12/08 11:18:30;;;;;;;8.57;3.73;;;7.20;99.90;;;;;;4943524;28;48918;-76
2021/12/08 11:20:59;;;;;;;9.60;3.57;;;7.20;99.90;;;;;;4947393;28;39582;-76
2021/12/08 11:23:41;;;;;;;7.47;3.63;;;7.30;99.90;;;;;;4949362;28;38669;-76
2021/12/08 11:26:15;;;;;;;10.48;4.32;;;7.30;99.90;;;;;;4959932;28;37898;-76
2021/12/08 11:28:43;;;;;;;11.27;3.93;;;7.30;99.90;;;;;;4959575;28;37259;-76
2021/12/08 11:31:19;;;;;;;10.07;4.40;;;7.30;99.90;;;;;;4945641;28;39666;-76
2021/12/08 11:33:58;;;;;;;9.80;3.67;;;7.30;99.90;;;;;;4963477;28;38511;-75
2021/12/08 11:36:26;;;;;;;16.07;5.00;;;7.40;99.90;;;;;;4961788;28;38253;-72
2021/12/08 11:38:53;;;;;;;11.70;4.17;;;7.50;99.90;;;;;;4953199;28;37458;-75
2021/12/08 11:41:36;;;;;;;15.93;3.90;;;7.50;99.90;;;;;;4947721;28;40189;-75
2021/12/08 11:44:18;;;;;;;10.47;3.67;;;7.50;99.90;;;;;;4920726;28;38430;-75
2021/12/08 11:46:51;;;;;;;10.73;4.93;;;7.40;99.90;;;;;;4931245;28;39542;-74
2021/12/08 11:49:17;;;;;;;;;;;7.40;99.90;;;;;;4923920;28;36981;-75
2021/12/08 11:51:43;;;;;;;7.87;3.80;;;7.50;99.90;;;;;;4921991;28;37562;-75
2021/12/08 11:54:24;;;;;;;12.73;4.90;;;7.50;99.90;;;;;;4926847;28;38062;-75
2021/12/08 11:56:51;;;;;;;12.93;4.67;;;7.60;99.90;;;;;;4916213;28;37818;-76
2021/12/08 11:59:18;;;;;;;10.93;4.70;;;7.60;99.90;;;;;;4923764;28;36797;-74
2021/12/08 12:01:46;;;;;;;14.17;4.63;;;7.60;99.90;;;;;;4919869;28;40061;-75
2021/12/08 12:04:12;;;;;;;12.27;4.60;;;7.60;99.90;;;;;;4927606;28;39374;-75
2021/12/08 12:06:39;;;;;;;15.27;5.20;;;7.60;99.90;;;;;;4919702;28;38221;-74
2021/12/08 12:09:07;;;;;;;16.03;5.87;;;7.60;99.90;;;;;;4912881;28;37537;-76
2021/12/08 12:11:33;;;;;;;10.83;4.40;;;7.60;99.90;;;;;;4934772;28;39450;-75
2021/12/08 12:14:00;;;;;;;14.57;5.43;;;7.50;99.90;;;;;;4915467;29;38378;-75
2021/12/08 12:16:28;;;;;;;15.07;5.23;;;7.50;99.90;;;;;;4927818;28;48767;-75
2021/12/08 12:18:58;;;;;;;14.17;5.10;;;7.50;99.90;;;;;;4927975;28;36125;-75
2021/12/08 12:21:34;;;;;;;15.27;5.20;;;7.50;99.90;;;;;;4914698;28;37488;-75
2021/12/08 12:24:21;;;;;;;11.27;4.17;;;7.50;99.90;;;;;;4926708;28;39945;-74
2021/12/08 12:26:53;;;;;;;11.77;4.43;;;7.60;99.90;;;;;;4922273;28;47405;-75
2021/12/08 12:29:22;;;;;;;;;;;7.60;99.90;;;;;;4921841;28;38229;-75
2021/12/08 12:32:05;;;;;;;12.20;3.40;;;7.60;99.90;;;;;;4921499;28;40690;-76
2021/12/08 12:34:38;;;;;;;11.73;3.42;;;7.60;99.90;;;;;;4914575;28;47326;-76
2021/12/08 12:37:25;;;;;;;14.73;3.63;;;7.60;99.90;;;;;;4915903;28;39029;-75
2021/12/08 12:39:54;;;;;;;15.10;3.47;;;7.60;99.90;;;;;;4936107;28;36109;-75
2021/12/08 12:42:21;;;;;;;7.33;3.17;;;7.60;99.90;;;;;;4928919;28;38911;-75
2021/12/08 12:45:01;;;;;;;11.73;3.27;;;7.60;99.90;;;;;;4940560;28;39898;-75
2021/12/08 12:47:30;;;;;;;13.73;3.90;;;7.60;99.90;;;;;;4955013;28;39946;-75
2021/12/08 12:50:21;;;;;;;11.27;3.17;;;7.60;99.90;;;;;;4941698;28;38986;-75
2021/12/08 12:52:54;;;;;;;15.10;3.20;;;7.60;99.90;;;;;;4952415;28;48103;-75
2021/12/08 12:55:35;;;;;;;14.30;2.88;;;7.60;99.90;;;;;;4957970;28;38318;-76
2021/12/08 12:58:04;;;;;;;11.03;3.57;;;7.70;99.90;;;;;;4955454;28;38152;-76
2021/12/08 13:00:33;;;;;;;16.83;3.90;;;7.70;99.90;;;;;;4980619;28;49514;-76
2021/12/08 13:03:01;;;;;;;10.73;3.57;;;7.70;99.90;;;;;;4955176;28;38918;-75
2021/12/08 13:05:45;;;;;;;16.00;3.40;;;7.70;99.90;;;;;;4949540;28;48373;-76
2021/12/08 13:08:12;;;;;;;16.67;3.70;;;7.70;99.90;;;;;;4961364;28;38162;-75
2021/12/08 13:10:39;;;;;;;10.23;3.00;;;7.70;99.90;;;;;;4958156;28;37984;-75
2021/12/08 13:13:10;;;;;;;11.67;3.60;;;7.70;99.90;;;;;;4947471;28;37385;-74
2021/12/08 13:15:40;;;;;;;10.87;3.50;;;7.70;99.90;;;;;;4951272;28;38880;-75
2021/12/08 13:18:09;;;;;;;10.53;2.80;;;7.70;99.90;;;;;;4929711;28;38967;-76
2021/12/08 13:20:42;;;;;;;11.53;3.63;;;7.70;99.90;;;;;;4941852;28;39246;-75
2021/12/08 13:23:10;;;;;;;15.00;3.42;;;7.70;99.90;;;;;;4957786;28;38759;-76
2021/12/08 13:28:39;;;;;;;13.53;3.40;;;7.70;99.90;;;;;;4977583;28;39253;-75
2021/12/08 13:31:27;;;;;;;13.20;3.77;;;7.70;99.90;;;;;;4946459;28;38061;-76
2021/12/08 13:34:00;;;;;;;19.57;3.70;;;7.70;99.90;;;;;;4945851;28;39631;-76
2021/12/08 13:36:31;;;;;;;14.10;3.93;;;7.70;99.90;;;;;;4947542;28;39393;-76
2021/12/08 13:38:57;;;;;;;13.33;3.67;;;7.70;99.90;;;;;;4956693;28;38562;-76
2021/12/08 13:41:27;;;;;;;15.33;3.70;;;7.70;99.90;;;;;;4947533;28;38906;-76
2021/12/08 13:43:54;;;;;;;17.13;4.77;;;7.80;99.90;;;;;;4966336;28;38704;-76
2021/12/08 13:46:54;;;;;;;18.60;5.40;;;7.80;99.90;;;;;;4953857;28;39362;-75
2021/12/08 13:49:26;;;;;;;11.10;4.57;;;7.80;99.90;;;;;;4939445;28;36798;-75
2021/12/08 13:52:07;;;;;;;19.83;4.90;;;7.80;99.90;;;;;;4944413;28;36994;-75
2021/12/08 13:54:39;;;;;;;12.27;2.87;;;7.80;99.90;;;;;;4955117;28;47236;-75
2021/12/08 13:57:28;;;;;;;11.65;3.03;;;7.80;99.90;;;;;;4939158;28;38741;-76
2021/12/08 14:00:00;;;;;;;12.27;3.00;;;7.70;99.90;;;;;;4945315;28;39611;-75
2021/12/08 14:02:31;;;;;;;7.47;2.75;;;7.70;99.90;;;;;;4940585;28;38042;-75
2021/12/08 14:05:11;;;;;;;9.63;2.63;;;7.60;99.90;;;;;;4958780;28;38083;-74